Time;durP1;ratioP1;P1;durP2;ratioP2;P2;SDS_P1;SDS_P2;PMS_P1;PMS_P2;Temp;Humidity;BMP_temperature;BMP_pressure;BME280_temperature;BME280_humidity;BME280_pressure;Samples;Min_cycle;Max_cycle;Signal;HPM_P1;HPM_P2
2022/02/06 00:00:01;;;;;;;;;;;3.50;99.90;3.80;100751.00;;;;344303;28;84643;-84
2022/02/06 00:00:14;;;;;;;;;;;3.50;99.90;3.80;100752.00;;;;343015;28;82311;-84
2022/02/06 00:00:28;;;;;;;;;;;3.50;99.90;3.90;100754.00;;;;341630;28;84920;-84
2022/02/06 00:00:40;;;;;;;;;;;3.50;99.90;3.90;100746.00;;;;343109;28;82368;-84
2022/02/06 00:00:53;;;;;;;;;;;3.50;99.90;3.80;100756.00;;;;344283;28;85522;-84
2022/02/06 00:01:07;;;;;;;;;;;3.50;99.90;3.70;100750.00;;;;344220;28;83436;-84
2022/02/06 00:01:19;;;;;;;;;;;3.40;99.90;3.80;100749.00;;;;345603;28;85147;-84
2022/02/06 00:01:33;;;;;;;;;;;3.40;99.90;3.80;100749.00;;;;344635;28;83583;-84
2022/02/06 00:01:45;;;;;;;;;;;3.40;99.90;3.70;100749.00;;;;342871;28;84736;-84
2022/02/06 00:01:57;;;;;;;;;;;3.40;99.90;3.80;100747.00;;;;344299;28;83426;-84
2022/02/06 00:02:15;;;;;;;;;;;3.30;99.90;3.70;100753.00;;;;342915;28;85471;-85
2022/02/06 00:02:34;;;;;;;;;;;3.40;99.90;3.70;100755.00;;;;344334;28;83287;-84
2022/02/06 00:02:49;;;;;;;;;;;3.30;99.90;3.60;100754.00;;;;344287;28;84088;-84
2022/02/06 00:03:02;;;;;;;;;;;3.30;99.90;3.70;100754.00;;;;341685;28;83141;-84
2022/02/06 00:03:14;;;;;;;;;;;3.30;99.90;3.70;100750.00;;;;341725;28;83761;-84
2022/02/06 00:03:26;;;;;;;;;;;3.30;99.90;3.70;100753.00;;;;341572;28;83487;-84
2022/02/06 00:03:39;;;;;;;;;;;3.30;99.90;3.60;100748.00;;;;343021;28;83619;-84
2022/02/06 00:03:56;;;;;;;;;;;3.30;99.90;3.80;100749.00;;;;341411;28;83634;-84
2022/02/06 00:04:08;;;;;;;;;;;3.30;99.90;3.90;100757.00;;;;341459;28;86081;-84
2022/02/06 00:04:20;;;;;;;;;;;3.30;99.90;3.90;100753.00;;;;341604;28;83469;-84
2022/02/06 00:04:31;;;;;;;;;;;3.30;99.90;4.00;100757.00;;;;342693;28;84495;-84
2022/02/06 00:04:45;;;;;;;;;;;3.30;99.90;3.90;100752.00;;;;345512;28;83208;-84
2022/02/06 00:04:57;;;;;;;;;;;3.30;99.90;3.80;100749.00;;;;344601;28;84637;-84
2022/02/06 00:05:11;;;;;;;;;;;3.30;99.90;3.80;100750.00;;;;344478;28;83363;-85
2022/02/06 00:05:23;;;;;;;;;;;3.30;99.90;3.80;100753.00;;;;341553;28;85005;-84
2022/02/06 00:05:34;;;;;;;;;;;3.30;99.90;3.80;100753.00;;;;340351;28;82285;-84
2022/02/06 00:05:48;;;;;;;;;;;3.30;99.90;3.70;100756.00;;;;341545;28;84893;-85
2022/02/06 00:06:01;;;;;;;;;;;3.30;99.90;3.90;100758.00;;;;343035;28;83280;-84
2022/02/06 00:06:12;;;;;;;;;;;3.30;99.90;3.90;100750.00;;;;342875;28;85009;-84
2022/02/06 00:06:24;;;;;;;;;;;3.30;99.90;3.90;100752.00;;;;342977;28;83295;-85
2022/02/06 00:06:36;;;;;;;;;;;3.30;99.90;3.80;100750.00;;;;344323;28;85072;-84
2022/02/06 00:06:48;;;;;;;;;;;3.30;99.90;3.90;100750.00;;;;342877;28;83487;-84
2022/02/06 00:06:59;;;;;;;;;;;3.30;99.90;3.90;100748.00;;;;342912;28;85899;-84
2022/02/06 00:07:11;;;;;;;;;;;3.30;99.90;4.00;100749.00;;;;342995;28;82404;-84
2022/02/06 00:07:23;;;;;;;;;;;3.30;99.90;4.00;100746.00;;;;342954;28;84639;-84
2022/02/06 00:07:34;;;;;;;;;;;3.30;99.90;3.90;100753.00;;;;343935;28;82469;-84
2022/02/06 00:07:48;;;;;;;;;;;3.30;99.90;3.90;100748.00;;;;343726;28;86515;-84
2022/02/06 00:08:04;;;;;;;;;;;3.30;99.90;3.80;100752.00;;;;344271;28;83177;-84
2022/02/06 00:08:16;;;;;;;;;;;3.30;99.90;3.70;100742.00;;;;344263;28;84708;-84
2022/02/06 00:08:28;;;;;;;;;;;3.30;99.90;3.80;100746.00;;;;342863;28;83405;-84
2022/02/06 00:08:40;;;;;;;;;;;3.30;99.90;3.90;100748.00;;;;342904;28;86248;-84
2022/02/06 00:08:52;;;;;;;;;;;3.30;99.90;3.80;100742.00;;;;345662;28;83289;-84
2022/02/06 00:09:03;;;;;;;;;;;3.30;99.90;3.70;100745.00;;;;344280;28;84855;-84
2022/02/06 00:09:15;;;;;;;;;;;3.30;99.90;3.70;100752.00;;;;344399;28;83344;-84
2022/02/06 00:09:27;;;;;;;;;;;3.30;99.90;3.80;100751.00;;;;344072;28;87030;-84
2022/02/06 00:09:40;;;;;;;;;;;3.20;99.90;4.00;100742.00;;;;344374;28;82575;-84
2022/02/06 00:10:12;;;;;;;;;;;3.30;99.90;4.10;100740.00;;;;340990;28;86464;-84
2022/02/06 00:10:25;;;;;;;;;;;3.30;99.90;4.00;100746.00;;;;344281;28;83385;-84
2022/02/06 00:10:37;;;;;;;;;;;3.30;99.90;3.90;100747.00;;;;344889;28;84863;-84
2022/02/06 00:10:48;;;;;;;;;;;3.30;99.90;3.80;100750.00;;;;344197;28;83426;-84
2022/02/06 00:11:00;;;;;;;;;;;3.30;99.90;3.90;100749.00;;;;344111;28;85088;-84
2022/02/06 00:11:12;;;;;;;;;;;3.30;99.90;3.90;100753.00;;;;345323;28;84065;-84
2022/02/06 00:11:24;;;;;;;;;;;3.30;99.90;3.80;100750.00;;;;344246;28;84623;-85
2022/02/06 00:11:35;;;;;;;;;;;3.30;99.90;3.80;100745.00;;;;343975;28;83526;-84
2022/02/06 00:11:47;;;;;;;;;;;3.30;99.90;3.80;100747.00;;;;344283;28;85346;-84
2022/02/06 00:11:59;;;;;;;;;;;3.30;99.90;3.80;100742.00;;;;344358;28;83274;-84
2022/02/06 00:12:10;;;;;;;;;;;3.20;99.90;3.90;100757.00;;;;344126;28;84356;-84
2022/02/06 00:12:22;;;;;;;;;;;3.30;99.90;4.00;100741.00;;;;342955;28;83341;-84
2022/02/06 00:12:34;;;;;;;;;;;3.30;99.90;4.00;100747.00;;;;342858;28;84901;-84
2022/02/06 00:12:46;;;;;;;;;;;3.20;99.90;3.90;100745.00;;;;342862;28;83398;-84
2022/02/06 00:12:58;;;;;;;;;;;3.30;99.90;3.90;100749.00;;;;342866;28;88018;-84
2022/02/06 00:13:10;;;;;;;;;;;3.30;99.90;4.00;100750.00;;;;342900;28;83413;-84
2022/02/06 00:13:21;;;;;;;;;;;3.20;99.90;4.00;100746.00;;;;344296;28;85387;-84
2022/02/06 00:13:33;;;;;;;;;;;3.30;99.90;3.90;100754.00;;;;344462;28;84253;-84
2022/02/06 00:13:45;;;;;;;;;;;3.30;99.90;3.80;100748.00;;;;345308;28;85927;-84
2022/02/06 00:13:57;;;;;;;;;;;3.30;99.90;3.80;100745.00;;;;342666;28;83344;-84
2022/02/06 00:14:08;;;;;;;;;;;3.30;99.90;3.90;100748.00;;;;344253;28;85037;-84
2022/02/06 00:14:20;;;;;;;;;;;3.30;99.90;4.00;100746.00;;;;343013;28;83252;-84
2022/02/06 00:14:34;;;;;;;;;;;3.20;99.90;4.00;100751.00;;;;342685;28;85783;-84
2022/02/06 00:14:45;;;;;;;;;;;3.30;99.90;4.10;100745.00;;;;342989;28;83242;-84
2022/02/06 00:14:57;;;;;;;;;;;3.30;99.90;4.10;100741.00;;;;342871;28;87796;-84
2022/02/06 00:15:09;;;;;;;;;;;3.30;99.90;4.20;100744.00;;;;342967;28;83258;-84
2022/02/06 00:15:21;;;;;;;;;;;3.30;99.90;4.20;100748.00;;;;342963;28;84831;-84
2022/02/06 00:15:33;;;;;;;;;;;3.30;99.90;4.10;100746.00;;;;344223;28;83486;-85
2022/02/06 00:15:45;;;;;;;;;;;3.30;99.90;4.00;100740.00;;;;342584;28;86948;-84
2022/02/06 00:15:57;;;;;;;;;;;3.30;99.90;3.90;100748.00;;;;343020;28;83351;-84
2022/02/06 00:16:09;;;;;;;;;;;3.30;99.90;4.00;100748.00;;;;342700;28;88038;-84
2022/02/06 00:16:21;;;;;;;;;;;3.30;99.90;4.10;100736.00;;;;343064;28;82275;-84
2022/02/06 00:16:34;;;;;;;;;;;3.30;99.90;4.00;100744.00;;;;342061;28;86630;-84
2022/02/06 00:16:45;;;;;;;;;;;3.30;99.90;4.00;100740.00;;;;342101;28;82361;-84
2022/02/06 00:16:57;;;;;;;;;;;3.30;99.90;3.90;100741.00;;;;344088;28;87163;-84
2022/02/06 00:17:09;;;;;;;;;;;3.30;99.90;4.00;100737.00;;;;344308;28;83253;-84
2022/02/06 00:17:21;;;;;;;;;;;3.30;99.90;4.10;100740.00;;;;344336;28;83813;-84
2022/02/06 00:17:34;;;;;;;;;;;3.30;99.90;4.00;100736.00;;;;345692;28;83367;-83
2022/02/06 00:17:47;;;;;;;;;;;3.30;99.90;4.10;100731.00;;;;344209;28;86252;-84
2022/02/06 00:17:59;;;;;;;;;;;3.30;99.90;3.90;100742.00;;;;344411;28;83375;-84
2022/02/06 00:18:10;;;;;;;;;;;3.30;99.90;4.00;100739.00;;;;345310;28;86850;-84
2022/02/06 00:18:22;;;;;;;;;;;3.30;99.90;4.10;100740.00;;;;345738;28;83166;-84
2022/02/06 00:18:34;;;;;;;;;;;3.30;99.90;4.00;100735.00;;;;345579;28;85378;-84
2022/02/06 00:18:46;;;;;;;;;;;3.30;99.90;3.90;100740.00;;;;345580;28;82530;-85
2022/02/06 00:18:58;;;;;;;;;;;3.30;99.90;3.90;100734.00;;;;345661;28;84988;-85
2022/02/06 00:19:09;;;;;;;;;;;3.30;99.90;4.00;100736.00;;;;345674;28;82501;-84
2022/02/06 00:19:21;;;;;;;;;;;3.30;99.90;4.10;100738.00;;;;343814;28;85183;-84
2022/02/06 00:19:34;;;;;;;;;;;3.30;99.90;4.10;100743.00;;;;342250;28;82568;-84
2022/02/06 00:19:46;;;;;;;;;;;3.30;99.90;4.10;100737.00;;;;344046;28;85603;-84
2022/02/06 00:19:58;;;;;;;;;;;3.30;99.90;4.10;100743.00;;;;342893;28;82415;-84
2022/02/06 00:20:10;;;;;;;;;;;3.30;99.90;4.20;100738.00;;;;342797;28;85000;-84
2022/02/06 00:20:24;;;;;;;;;;;3.30;99.90;4.20;100744.00;;;;342994;28;82326;-84
2022/02/06 00:20:46;;;;;;;;;;;3.30;99.90;4.10;100740.00;;;;341174;28;84865;-84
2022/02/06 00:21:03;;;;;;;;;;;3.40;99.90;3.80;100739.00;;;;343010;28;83297;-84
2022/02/06 00:21:18;;;;;;;;;;;3.40;99.90;3.80;100739.00;;;;342899;28;84888;-84
2022/02/06 00:21:32;;;;;;;;;;;3.30;99.90;3.80;100740.00;;;;342696;28;83318;-84
2022/02/06 00:21:44;;;;;;;;;;;3.30;99.90;3.90;100737.00;;;;342783;28;85423;-84
2022/02/06 00:21:56;;;;;;;;;;;3.40;99.90;4.10;100735.00;;;;344374;28;83391;-84
2022/02/06 00:22:12;;;;;;;;;;;3.30;99.90;4.00;100737.00;;;;344162;28;83968;-84
2022/02/06 00:22:29;;;;;;;;;;;3.30;99.90;3.90;100739.00;;;;344229;28;83416;-84
2022/02/06 00:22:46;;;;;;;;;;;3.40;99.90;3.80;100731.00;;;;342958;28;85443;-84
2022/02/06 00:23:02;;;;;;;;;;;3.30;99.90;3.70;100740.00;;;;342941;28;82487;-84
2022/02/06 00:23:16;;;;;;;;;;;3.30;99.90;3.80;100743.00;;;;342868;28;85022;-85
2022/02/06 00:23:30;;;;;;;;;;;3.30;99.90;3.80;100745.00;;;;344217;28;84089;-85
2022/02/06 00:23:44;;;;;;;;;;;3.30;99.90;3.90;100735.00;;;;343990;28;83935;-84
2022/02/06 00:23:56;;;;;;;;;;;3.30;99.90;3.80;100741.00;;;;344395;28;82334;-84
2022/02/06 00:24:13;;;;;;;;;;;3.30;99.90;3.70;100742.00;;;;345566;28;83953;-84
2022/02/06 00:24:34;;;;;;;;;;;3.30;99.90;3.70;100740.00;;;;345783;28;83313;-84
2022/02/06 00:24:55;;;;;;;;;;;3.30;99.90;3.80;100743.00;;;;346962;28;85037;-84
2022/02/06 00:26:30;;;;;;;;;;;3.20;99.90;4.00;100747.00;;;;340802;28;85666;-84
2022/02/06 00:26:52;;;;;;;;;;;3.30;99.90;4.00;100735.00;;;;343515;28;84152;-84
2022/02/06 00:27:08;;;;;;;;;;;3.30;99.90;3.90;100741.00;;;;341637;28;83313;-84
2022/02/06 00:27:39;;;;;;;;;;;3.30;99.90;4.00;100729.00;;;;341443;28;84851;-84
2022/02/06 00:28:47;;;;;;;;;;;3.30;99.90;4.10;100737.00;;;;341278;28;82291;-85
2022/02/06 00:29:32;;;;;;;;;;;3.30;99.90;4.00;100739.00;;;;341819;28;83132;-85
2022/02/06 00:30:06;;;;;;;;;;;3.30;99.90;4.10;100739.00;;;;342796;28;83662;-84
2022/02/06 00:30:54;;;;;;;;;;;3.30;99.90;4.20;100735.00;;;;341588;28;83178;-84
2022/02/06 00:32:00;;;;;;;;;;;3.30;99.90;4.00;100727.00;;;;340005;28;88206;-84
2022/02/06 00:32:07;;;;;;;;;;;3.40;99.90;4.00;100739.00;;;;341539;28;83305;-84
2022/02/06 00:32:25;;;;;;;;;;;3.30;99.90;4.10;100735.00;;;;338238;28;83399;-84
2022/02/06 00:32:44;;;;;;;;;;;3.30;99.90;4.00;100736.00;;;;337542;28;85333;-84
2022/02/06 00:33:03;;;;;;;;;;;3.30;99.90;4.00;100730.00;;;;338850;28;83557;-85
2022/02/06 00:34:28;;;;;;;;;;;3.30;99.90;3.90;100744.00;;;;340257;28;82420;-84
2022/02/06 00:38:27;;;;;;;;;;;3.30;99.90;3.70;100740.00;;;;334859;29;83292;-84
2022/02/06 00:39:06;;;;;;;;;;;3.20;99.90;3.60;100744.00;;;;332310;29;83425;-84
2022/02/06 00:39:18;;;;;;;;;;;3.20;99.90;3.70;100736.00;;;;334484;29;85481;-84
2022/02/06 00:39:29;;;;;;;;;;;3.20;99.90;3.80;100737.00;;;;334929;29;83212;-84
2022/02/06 00:39:41;;;;;;;;;;;3.20;99.90;3.80;100742.00;;;;334927;29;84781;-85
2022/02/06 00:39:54;;;;;;;;;;;3.20;99.90;3.80;100733.00;;;;333494;29;83311;-85
2022/02/06 00:40:06;;;;;;;;;;;3.20;99.90;3.70;100738.00;;;;336196;28;83393;-85
2022/02/06 00:40:19;;;;;;;;;;;3.20;99.90;3.60;100733.00;;;;334999;29;83285;-85
2022/02/06 00:41:11;;;;;;;;;;;3.20;99.90;3.70;100741.00;;;;330989;29;85265;-85
2022/02/06 00:41:14;;;;;;;;;;;3.20;99.90;3.90;100736.00;;;;329925;29;82445;-85
2022/02/06 00:41:26;;;;;;;;;;;3.20;99.90;3.90;100727.00;;;;329759;29;85374;-85
2022/02/06 00:41:38;;;;;;;;;;;3.20;99.90;3.90;100736.00;;;;333550;29;83624;-85
2022/02/06 00:41:50;;;;;;;;;;;3.20;99.90;3.90;100735.00;;;;336194;28;84025;-85
2022/02/06 00:42:01;;;;;;;;;;;3.20;99.90;3.90;100740.00;;;;334992;29;83441;-85
2022/02/06 00:42:14;;;;;;;;;;;3.20;99.90;3.80;100739.00;;;;334855;29;85337;-85
2022/02/06 00:42:25;;;;;;;;;;;3.20;99.90;3.90;100731.00;;;;336222;29;83359;-85
2022/02/06 00:42:37;;;;;;;;;;;3.20;99.90;3.80;100730.00;;;;336134;29;85412;-85
2022/02/06 00:42:49;;;;;;;;;;;3.20;99.90;3.60;100735.00;;;;336127;28;83559;-85
2022/02/06 00:43:01;;;;;;;;;;;3.20;99.90;3.60;100730.00;;;;336987;28;84501;-85
2022/02/06 00:43:12;;;;;;;;;;;3.20;99.90;3.50;100727.00;;;;336055;29;83376;-85
2022/02/06 00:43:25;;;;;;;;;;;3.20;99.90;3.40;100740.00;;;;334695;29;84018;-85
2022/02/06 00:43:36;;;;;;;;;;;3.20;99.90;3.50;100730.00;;;;335894;29;83401;-85
2022/02/06 00:43:49;;;;;;;;;;;3.20;99.90;3.60;100732.00;;;;333155;29;88275;-85
2022/02/06 00:44:04;;;;;;;;;;;3.10;99.90;3.80;100738.00;;;;334843;29;83568;-84
2022/02/06 00:44:16;;;;;;;;;;;3.10;99.90;3.80;100736.00;;;;334813;29;87914;-85
2022/02/06 00:44:28;;;;;;;;;;;3.10;99.90;3.80;100737.00;;;;337238;28;83587;-85
2022/02/06 00:44:41;;;;;;;;;;;3.10;99.90;3.70;100741.00;;;;333499;29;85498;-84
2022/02/06 00:44:53;;;;;;;;;;;3.10;99.90;3.70;100744.00;;;;334946;29;83225;-85
2022/02/06 00:45:05;;;;;;;;;;;3.10;99.90;3.60;100736.00;;;;334928;29;84384;-85
2022/02/06 00:45:17;;;;;;;;;;;3.10;99.90;3.70;100739.00;;;;335009;29;83118;-85
2022/02/06 00:45:29;;;;;;;;;;;3.10;99.90;3.70;100738.00;;;;334714;29;88396;-84
2022/02/06 00:45:41;;;;;;;;;;;3.10;99.90;3.70;100728.00;;;;334926;29;83596;-85
2022/02/06 00:45:53;;;;;;;;;;;3.10;99.90;3.70;100738.00;;;;334666;29;84902;-85
2022/02/06 00:46:07;;;;;;;;;;;3.10;99.90;3.60;100731.00;;;;337469;28;82531;-85
2022/02/06 00:46:20;;;;;;;;;;;3.10;99.90;3.70;100733.00;;;;334707;29;88138;-85
2022/02/06 00:46:35;;;;;;;;;;;3.10;99.90;3.80;100732.00;;;;335709;29;83565;-85
2022/02/06 00:46:47;;;;;;;;;;;3.10;99.90;3.70;100727.00;;;;336137;29;85336;-85
2022/02/06 00:47:02;;;;;;;;;;;3.10;99.90;3.80;100728.00;;;;337278;28;83487;-85
2022/02/06 00:47:14;;;;;;;;;;;3.10;99.90;3.80;100733.00;;;;336116;29;88085;-85
2022/02/06 00:47:27;;;;;;;;;;;3.10;99.90;3.80;100729.00;;;;334935;29;83403;-85
2022/02/06 00:47:40;;;;;;;;;;;3.10;99.90;3.80;100733.00;;;;336127;28;85334;-85
2022/02/06 00:47:52;;;;;;;;;;;3.10;99.90;3.70;100737.00;;;;336297;28;82299;-85
2022/02/06 00:48:04;;;;;;;;;;;3.10;99.90;3.80;100734.00;;;;336103;28;86526;-85
2022/02/06 00:48:21;;;;;;;;;;;3.10;99.90;3.80;100734.00;;;;337423;28;83308;-85
2022/02/06 00:48:36;;;;;;;;;;;3.10;99.90;3.90;100725.00;;;;338576;28;87225;-85
2022/02/06 00:48:57;;;;;;;;;;;3.10;99.90;3.80;100737.00;;;;336296;28;83176;-85
2022/02/06 00:49:29;;;;;;;;;;;3.10;99.90;3.70;100737.00;;;;333603;29;84013;-85
2022/02/06 00:49:44;;;;;;;;;;;3.10;99.90;3.50;100749.00;;;;333976;29;83556;-85
2022/02/06 00:49:57;;;;;;;;;;;3.10;99.90;3.50;100743.00;;;;338703;28;84896;-85
2022/02/06 00:50:09;;;;;;;;;;;3.10;99.90;3.50;100737.00;;;;336261;28;83454;-85
2022/02/06 00:50:21;;;;;;;;;;;3.10;99.90;3.50;100731.00;;;;334827;29;85128;-85
2022/02/06 00:50:36;;;;;;;;;;;3.00;99.90;3.50;100736.00;;;;335710;28;82684;-85
2022/02/06 00:50:53;;;;;;;;;;;3.00;99.90;3.60;100731.00;;;;333390;29;85541;-84
2022/02/06 00:52:15;;;;;;;;;;;3.00;99.90;3.50;100742.00;;;;334649;29;83804;-85
2022/02/06 00:53:07;;;;;;;;;;;3.00;99.90;3.50;100740.00;;;;353356;27;75894;-84
2022/02/06 00:53:19;;;;;;;;;;;3.00;99.90;3.60;100734.00;;;;351118;27;83458;-84
2022/02/06 00:53:31;;;;;;;;;;;3.00;99.90;3.60;100736.00;;;;348987;27;85323;-85
2022/02/06 00:53:43;;;;;;;;;;;3.00;99.90;3.60;100737.00;;;;347067;28;83560;-84
2022/02/06 00:53:55;;;;;;;;;;;2.90;99.90;3.60;100736.00;;;;349960;27;85025;-84
2022/02/06 00:54:07;;;;;;;;;;;3.00;99.90;3.70;100727.00;;;;348373;27;83319;-84
2022/02/06 00:54:19;;;;;;;;;;;3.00;99.90;3.70;100734.00;;;;348279;27;83326;-84
2022/02/06 00:54:30;;;;;;;;;;;3.00;99.90;3.70;100727.00;;;;348533;27;83275;-84
2022/02/06 00:54:43;;;;;;;;;;;3.00;99.90;3.80;100732.00;;;;348425;27;83833;-84
2022/02/06 00:54:56;;;;;;;;;;;3.00;99.90;3.60;100731.00;;;;348557;27;83391;-84
2022/02/06 00:55:08;;;;;;;;;;;3.00;99.90;3.70;100742.00;;;;347154;28;83339;-84
2022/02/06 00:55:20;;;;;;;;;;;3.00;99.90;3.60;100732.00;;;;347187;28;83265;-85
2022/02/06 00:55:32;;;;;;;;;;;3.00;99.90;3.50;100734.00;;;;347314;27;87749;-85
2022/02/06 00:55:44;;;;;;;;;;;2.90;99.90;3.50;100741.00;;;;346950;28;83591;-84
2022/02/06 00:55:57;;;;;;;;;;;2.90;99.90;3.50;100737.00;;;;345641;28;85394;-84
2022/02/06 00:56:09;;;;;;;;;;;2.90;99.90;3.50;100731.00;;;;344329;28;83428;-85
2022/02/06 00:56:20;;;;;;;;;;;2.90;99.90;3.50;100731.00;;;;345509;28;85743;-84
2022/02/06 00:56:32;;;;;;;;;;;2.90;99.90;3.50;100733.00;;;;346393;28;83481;-85
2022/02/06 00:56:44;;;;;;;;;;;2.90;99.90;3.50;100736.00;;;;348517;27;83253;-85
2022/02/06 00:56:56;;;;;;;;;;;2.90;99.90;3.40;100739.00;;;;348591;27;83318;-84
2022/02/06 00:57:08;;;;;;;;;;;2.90;99.90;3.40;100738.00;;;;348522;27;84570;-84
2022/02/06 00:57:20;;;;;;;;;;;2.90;99.90;3.40;100733.00;;;;345801;28;83316;-84
2022/02/06 00:57:32;;;;;;;;;;;2.90;99.90;3.40;100736.00;;;;347010;28;85114;-85
2022/02/06 00:57:44;;;;;;;;;;;2.80;99.90;3.40;100734.00;;;;347085;28;83525;-85
2022/02/06 00:57:56;;;;;;;;;;;2.90;99.90;3.40;100738.00;;;;347112;28;84196;-84
2022/02/06 00:58:08;;;;;;;;;;;2.90;99.90;3.30;100737.00;;;;348559;27;83247;-84
2022/02/06 00:58:20;;;;;;;;;;;2.90;99.90;3.30;100739.00;;;;348756;27;84905;-84
2022/02/06 00:58:31;;;;;;;;;;;2.80;99.90;3.30;100733.00;;;;346757;28;83484;-84
2022/02/06 00:58:45;;;;;;;;;;;2.80;99.90;3.30;100736.00;;;;347805;27;85097;-85
2022/02/06 00:58:57;;;;;;;;;;;2.80;99.90;3.20;100726.00;;;;348221;27;83403;-84
2022/02/06 00:59:08;;;;;;;;;;;2.80;99.90;3.30;100737.00;;;;349906;27;84745;-84
2022/02/06 00:59:20;;;;;;;;;;;2.80;99.90;3.20;100733.00;;;;346937;28;84003;-85
2022/02/06 00:59:32;;;;;;;;;;;2.80;99.90;3.10;100728.00;;;;346911;28;84916;-84
2022/02/06 00:59:45;;;;;;;;;;;2.80;99.90;3.10;100737.00;;;;349952;27;83401;-84
2022/02/06 00:59:57;;;;;;;;;;;2.80;99.90;3.10;100736.00;;;;348406;27;87906;-84
2022/02/06 01:00:09;;;;;;;;;;;2.70;99.90;3.10;100737.00;;;;348392;27;83414;-84
2022/02/06 01:00:21;;;;;;;;;;;2.80;99.90;3.20;100735.00;;;;349912;27;84476;-85
2022/02/06 01:00:32;;;;;;;;;;;2.70;99.90;3.10;100730.00;;;;349939;27;83230;-84
2022/02/06 01:00:45;;;;;;;;;;;2.70;99.90;3.10;100729.00;;;;349832;27;85492;-85
2022/02/06 01:00:57;;;;;;;;;;;2.70;99.90;3.10;100740.00;;;;347076;28;83464;-84
2022/02/06 01:01:09;;;;;;;;;;;2.70;99.90;3.10;100737.00;;;;348503;27;84998;-84
2022/02/06 01:01:21;;;;;;;;;;;2.70;99.90;3.10;100733.00;;;;348589;27;83360;-85
2022/02/06 01:01:33;;;;;;;;;;;2.70;99.90;3.10;100736.00;;;;347971;27;87176;-84
2022/02/06 01:01:46;;;;;;;;;;;2.70;99.90;3.20;100737.00;;;;348382;27;82361;-84
2022/02/06 01:01:58;;;;;;;;;;;2.70;99.90;3.20;100736.00;;;;348408;27;85367;-84
2022/02/06 01:02:09;;;;;;;;;;;2.70;99.90;3.20;100732.00;;;;348571;27;83472;-84
2022/02/06 01:02:21;;;;;;;;;;;2.70;99.90;3.10;100735.00;;;;349716;27;86053;-84
2022/02/06 01:02:33;;;;;;;;;;;2.70;99.90;3.00;100735.00;;;;350042;27;82164;-84
2022/02/06 01:02:46;;;;;;;;;;;2.70;99.90;2.90;100738.00;;;;349906;27;84342;-84
2022/02/06 01:02:57;;;;;;;;;;;2.70;99.90;2.90;100730.00;;;;348565;27;83269;-84
2022/02/06 01:03:29;;;;;;;;;;;2.70;99.90;3.00;100742.00;;;;348397;27;87201;-83
2022/02/06 01:03:41;;;;;;;;;;;2.60;99.90;3.10;100738.00;;;;348623;27;83223;-84
2022/02/06 01:03:53;;;;;;;;;;;2.60;99.90;3.30;100730.00;;;;348496;27;84538;-85
2022/02/06 01:04:05;;;;;;;;;;;2.70;99.90;3.30;100735.00;;;;345736;28;83258;-84
2022/02/06 01:04:17;;;;;;;;;;;2.70;99.90;3.40;100737.00;;;;349890;27;86268;-84
2022/02/06 01:04:34;;;;;;;;;;;2.60;99.90;3.40;100733.00;;;;348678;27;83215;-84
2022/02/06 01:04:47;;;;;;;;;;;2.70;99.90;3.50;100734.00;;;;345538;28;84998;-84
2022/02/06 01:04:59;;;;;;;;;;;2.70;99.90;3.50;100730.00;;;;345549;28;83398;-84
2022/02/06 01:05:10;;;;;;;;;;;2.70;99.90;3.50;100733.00;;;;347005;28;85533;-84
2022/02/06 01:05:22;;;;;;;;;;;2.70;99.90;3.50;100722.00;;;;346993;28;83416;-84
2022/02/06 01:05:34;;;;;;;;;;;2.70;99.90;3.50;100741.00;;;;347047;28;84546;-85
2022/02/06 01:05:46;;;;;;;;;;;2.70;99.90;3.50;100735.00;;;;347117;28;83358;-85
2022/02/06 01:05:58;;;;;;;;;;;2.70;99.90;3.40;100736.00;;;;345687;28;86281;-84
2022/02/06 01:06:10;;;;;;;;;;;2.70;99.90;3.50;100742.00;;;;347011;28;82671;-84
2022/02/06 01:06:22;;;;;;;;;;;2.70;99.90;3.50;100741.00;;;;347157;28;85177;-84
2022/02/06 01:06:33;;;;;;;;;;;2.70;99.90;3.50;100743.00;;;;345788;28;83321;-84
2022/02/06 01:06:47;;;;;;;;;;;2.70;99.90;3.50;100734.00;;;;345708;28;84630;-84
2022/02/06 01:06:58;;;;;;;;;;;2.80;99.90;3.40;100738.00;;;;347062;28;82406;-84
2022/02/06 01:07:10;;;;;;;;;;;2.80;99.90;3.40;100740.00;;;;347156;28;84741;-84
2022/02/06 01:07:22;;;;;;;;;;;2.80;99.90;3.40;100736.00;;;;347238;28;82236;-84
2022/02/06 01:07:34;;;;;;;;;;;2.70;99.90;3.40;100736.00;;;;347961;27;88121;-84
2022/02/06 01:07:48;;;;;;;;;;;2.70;99.90;3.40;100743.00;;;;347051;28;83404;-84
2022/02/06 01:08:00;;;;;;;;;;;2.70;99.90;3.40;100733.00;;;;345672;28;85146;-84
2022/02/06 01:08:11;;;;;;;;;;;2.70;99.90;3.40;100735.00;;;;345618;28;83232;-86
2022/02/06 01:08:23;;;;;;;;;;;2.80;99.90;3.30;100731.00;;;;346875;28;85113;-84
2022/02/06 01:08:35;;;;;;;;;;;2.70;99.90;3.20;100735.00;;;;347094;27;83297;-85
2022/02/06 01:08:47;;;;;;;;;;;2.70;99.90;3.20;100734.00;;;;347074;28;84725;-84
2022/02/06 01:08:59;;;;;;;;;;;2.70;99.90;3.20;100725.00;;;;347085;28;83485;-84
2022/02/06 01:09:11;;;;;;;;;;;2.70;99.90;3.30;100731.00;;;;348542;27;85102;-84
2022/02/06 01:09:23;;;;;;;;;;;2.70;99.90;3.30;100736.00;;;;347189;28;82425;-84
2022/02/06 01:09:34;;;;;;;;;;;2.70;99.90;3.20;100731.00;;;;347060;28;85189;-84
2022/02/06 01:09:48;;;;;;;;;;;2.70;99.90;3.20;100724.00;;;;347179;28;83342;-84
2022/02/06 01:10:00;;;;;;;;;;;2.70;99.90;3.20;100725.00;;;;347078;28;85228;-84
2022/02/06 01:10:13;;;;;;;;;;;2.70;99.90;3.20;100726.00;;;;345780;28;82395;-84
2022/02/06 01:10:27;;;;;;;;;;;2.70;99.90;3.20;100720.00;;;;345729;28;85332;-84
2022/02/06 01:10:39;;;;;;;;;;;2.70;99.90;3.30;100732.00;;;;346773;28;83412;-84
2022/02/06 01:10:50;;;;;;;;;;;2.70;99.90;3.30;100730.00;;;;347007;28;84079;-84
2022/02/06 01:11:07;;;;;;;;;;;2.70;99.90;3.30;100723.00;;;;347355;27;82268;-84
2022/02/06 01:11:18;;;;;;;;;;;2.70;99.90;3.20;100720.00;;;;347071;28;87921;-84
2022/02/06 01:11:32;;;;;;;;;;;2.70;99.90;3.10;100721.00;;;;347124;28;83343;-84
2022/02/06 01:11:44;;;;;;;;;;;2.70;99.90;3.10;100720.00;;;;347027;28;85399;-84
2022/02/06 01:11:57;;;;;;;;;;;2.70;99.90;3.20;100726.00;;;;345593;28;83370;-84
2022/02/06 01:12:09;;;;;;;;;;;2.70;99.90;3.30;100726.00;;;;345663;28;85148;-84
2022/02/06 01:12:24;;;;;;;;;;;2.70;99.90;3.30;100726.00;;;;345722;28;83375;-84
2022/02/06 01:12:39;;;;;;;;;;;2.70;99.90;3.20;100718.00;;;;347096;28;86245;-84
2022/02/06 01:12:57;;;;;;;;;;;2.70;99.90;3.20;100718.00;;;;347138;28;83144;-84
2022/02/06 01:13:24;;;;;;;;;;;2.70;99.90;3.20;100723.00;;;;348496;27;84216;-84
2022/02/06 01:14:54;;;;;;;;;;;2.70;99.90;3.20;100709.00;;;;344506;28;83099;-84
2022/02/06 01:15:12;;;;;;;;;;;2.60;99.90;3.20;100720.00;;;;346793;28;88276;-84
2022/02/06 01:15:29;;;;;;;;;;;2.60;99.90;3.20;100716.00;;;;347342;27;83431;-84
2022/02/06 01:15:48;;;;;;;;;;;2.60;99.90;3.10;100713.00;;;;347061;28;85317;-84
2022/02/06 01:16:14;;;;;;;;;;;2.60;99.90;3.10;100717.00;;;;347135;28;83486;-84
2022/02/06 01:16:31;;;;;;;;;;;2.60;99.90;3.10;100719.00;;;;345359;28;83729;-84
2022/02/06 01:16:54;;;;;;;;;;;2.60;99.90;3.10;100720.00;;;;347209;28;82438;-85
2022/02/06 01:17:20;;;;;;;;;;;2.60;99.90;3.00;100724.00;;;;348434;27;84687;-84
2022/02/06 01:17:44;;;;;;;;;;;2.60;99.90;3.00;100718.00;;;;347790;27;83320;-84
2022/02/06 01:18:02;;;;;;;;;;;2.60;99.90;3.00;100718.00;;;;349736;27;87412;-85
2022/02/06 01:18:22;;;;;;;;;;;2.50;99.90;3.00;100719.00;;;;348509;27;83850;-84
2022/02/06 01:18:39;;;;;;;;;;;2.50;99.90;3.00;100724.00;;;;348578;27;83817;-84
2022/02/06 01:19:02;;;;;;;;;;;2.50;99.90;3.00;100718.00;;;;347018;28;83228;-84
2022/02/06 01:19:22;;;;;;;;;;;2.50;99.90;3.10;100720.00;;;;348457;27;84305;-84
2022/02/06 01:19:49;;;;;;;;;;;2.50;99.90;3.10;100712.00;;;;346689;27;83342;-83
2022/02/06 01:20:10;;;;;;;;;;;2.50;99.90;3.10;100724.00;;;;344964;28;85018;-84
2022/02/06 01:20:29;;;;;;;;;;;2.50;99.90;3.10;100714.00;;;;347167;28;82321;-84
2022/02/06 01:20:46;;;;;;;;;;;2.60;99.90;3.10;100713.00;;;;345618;28;87512;-84
2022/02/06 01:21:03;;;;;;;;;;;2.60;99.90;3.20;100719.00;;;;347208;28;83330;-84
2022/02/06 01:21:55;;;;;;;;;;;2.50;99.90;3.10;100715.00;;;;346933;28;83537;-84
2022/02/06 01:22:11;;;;;;;;;;;2.50;99.90;3.10;100714.00;;;;346972;28;84320;-87